Thomas G. Thompson — KTDQ — position and weather

sailwx.info

Track history (hours):
 
Tides and Currents Weather Stations Pressure Air Temp Water Temp Dewpoint Dewpoint Depression Visibility Wind Speed Wind Dir Waves Ship Positions

Oceanographic research ship Thomas G. Thompson (USA)

Ship's website: http://www.ocean.washington.edu/vessels/TGT/tgt.html

Detailed information on ship capabilities available from University of Delaware's Ocean Information Center.

Owner: UNIVERSITY OF WASHINGTON, SEATTLE, WA. More information available from US FCC via Universal Licensing System and Coast Guard Vessel Documentation Center.

Last reported at 2014-Dec-21 18:33 UTC. Time now 2014-Dec-21 20:53 UTC.
Position N 47°39' W 122°20'.

Type: Other ship. MMSI: 366345000.

Date/timePositionNaut miles runAvg speedWind from/ knotsBaromVisibWave heightAir tempDewpointWater temp
2014-Dec-21 18:33N 47°39' W 122°20'3 2.9
2014-Dec-21 17:33N 47°40' W 122°24'4 4.0
2014-Dec-21 16:34N 47°42' W 122°28'5 5.2
2014-Dec-21 15:33N 47°48' W 122°27'1211.4
2014-Dec-21 14:33N 47°58' W 122°36'1311.7
2014-Dec-21 13:24N 48°09' W 122°45'1112.4
2014-Dec-21 12:33N 48°12' W 123°01'1414.0
2014-Dec-21 11:33N 48°13' W 123°22'1514.9
2014-Dec-21 10:33N 48°13' W 123°44'1414.2
2014-Dec-21 09:34N 48°17' W 124°05'1514.7
2014-Dec-21 08:33N 48°23' W 124°25'1414.0
2014-Dec-21 07:34N 48°29' W 124°44'1312.7
2014-Dec-21 06:33N 48°29' W 125°03'1212.2
2014-Dec-21 05:33N 48°30' W 125°21'1211.9
2014-Dec-21 04:34N 48°38' W 125°34'1111.2
2014-Dec-21 03:34N 48°46' W 125°46'1110.9
2014-Dec-21 02:33N 48°54' W 125°58'1010.4
2014-Dec-21 01:34N 49°01' W 126°09'1210.7
2014-Dec-21 00:28N 49°09' W 126°22'1010.5
2014-Dec-20 23:33N 49°16' W 126°33'1010.0
2014-Dec-20 22:33N 49°23' W 126°43'9 9.0
2014-Dec-20 21:34N 49°32' W 126°40'10 1.3
2014-Dec-20 13:33N 49°39' W 126°28'6 5.7
2014-Dec-20 12:33N 49°38' W 126°36'1 0.5
2014-Dec-20 11:34N 49°38' W 126°37'0 0.0
2014-Dec-20 10:33N 49°38' W 126°37'1 1.1
2014-Dec-20 09:33N 49°39' W 126°36'2 2.2
2014-Dec-20 08:34N 49°37' W 126°36'4 3.6
2014-Dec-20 07:32N 49°41' W 126°35'1 1.3
2014-Dec-20 06:33N 49°41' W 126°34'1 0.9
2014-Dec-20 05:33N 49°41' W 126°35'4 3.6
2014-Dec-20 04:34N 49°44' W 126°38'1 0.8
2014-Dec-20 03:33N 49°45' W 126°38'1 0.6
2014-Dec-20 02:33N 49°46' W 126°38'1 1.3
2014-Dec-20 01:33N 49°47' W 126°39'1 1.5
2014-Dec-20 00:33N 49°45' W 126°38'2 2.4
2014-Dec-19 23:32N 49°48' W 126°39'1 1.1
2014-Dec-19 22:32N 49°47' W 126°39'0 0.1
2014-Dec-19 21:33N 49°47' W 126°39'1 1.4
2014-Dec-19 20:33N 49°45' W 126°38'1 1.2
2014-Dec-19 19:33N 49°47' W 126°39'0 0.1
2014-Dec-19 18:34N 49°47' W 126°39'0 0.1
2014-Dec-19 17:32N 49°47' W 126°39'0 0.3
2014-Dec-19 16:30N 49°47' W 126°39'0 0.5
2014-Dec-19 15:33N 49°48' W 126°39'0 0.1
2014-Dec-19 13:27N 49°48' W 126°39'4 3.6
2014-Dec-19 12:27N 49°52' W 126°40'0 0.0
2014-Dec-19 11:14N 49°51' W 126°40'3 4.8
2014-Dec-19 10:34N 49°48' W 126°39'4 1.7
2014-Dec-19 08:21N 49°52' W 126°39'4 1.2
2014-Dec-19 04:34N 49°48' W 126°39'5 0.3
2014-Dec-18 15:10N 49°52' W 126°40'1 1.4
2014-Dec-18 14:33N 49°53' W 126°39'1 1.0
2014-Dec-18 13:16N 49°54' W 126°40'0 0.2
2014-Dec-18 12:10N 49°54' W 126°39'3 3.8
2014-Dec-18 11:27N 49°51' W 126°40'2 1.5
2014-Dec-18 10:24N 49°53' W 126°40'2 1.0
2014-Dec-18 08:34N 49°55' W 126°39'7 1.3
2014-Dec-18 03:13N 49°48' W 126°39'0 0.1
2014-Dec-18 02:32N 49°48' W 126°39'1 1.1
2014-Dec-18 01:31N 49°47' W 126°39'0 0.2
2014-Dec-18 00:33N 49°47' W 126°39'0 0.2
2014-Dec-17 23:29N 49°47' W 126°39'0 0.1
2014-Dec-17 22:25N 49°47' W 126°39'0 0.2
2014-Dec-17 21:24N 49°46' W 126°39'0 0.3
2014-Dec-17 20:32N 49°46' W 126°38'0 0.0
2014-Dec-17 19:33N 49°46' W 126°38'0 0.1
2014-Dec-17 18:22N 49°46' W 126°38'8 1.9
2014-Dec-17 14:16N 49°54' W 126°39'1 1.0
2014-Dec-17 13:13N 49°53' W 126°40'0 0.1
2014-Dec-17 12:08N 49°53' W 126°40'5 0.8
2014-Dec-17 06:21N 49°48' W 126°39'0 0.1
2014-Dec-17 05:28N 49°48' W 126°39'1 0.2
2014-Dec-17 02:33N 49°48' W 126°39'4 4.3
2014-Dec-17 01:33N 49°43' W 126°37'3 3.4
2014-Dec-17 00:33N 49°41' W 126°33'3 3.1
2014-Dec-16 23:34N 49°43' W 126°29'1 0.1
2014-Dec-16 15:32N 49°42' W 126°30'0 0.1
2014-Dec-16 11:33N 49°42' W 126°30'1 0.6
2014-Dec-16 10:32N 49°42' W 126°30'4 2.6
2014-Dec-16 09:04N 49°39' W 126°27'2 1.1
2014-Dec-16 07:12N 49°39' W 126°23'0 0.0
2014-Dec-16 06:22N 49°39' W 126°24'2 0.1
2014-Dec-15 03:10N 49°39' W 126°26'1 0.9
2014-Dec-15 02:15N 49°39' W 126°27'0 0.0
2014-Dec-15 01:30N 49°39' W 126°27'0 0.2
2014-Dec-15 00:34N 49°39' W 126°27'0 0.0
2014-Dec-13 21:12N 49°39' W 126°27'0 0.0
2014-Dec-13 18:05N 49°39' W 126°27'0 0.0
2014-Dec-13 17:25N 49°39' W 126°27'0 0.2
2014-Dec-13 16:25N 49°39' W 126°27'0 0.0
2014-Dec-13 15:19N 49°39' W 126°27'1 0.1
2014-Dec-13 08:31N 49°39' W 126°26'1 0.2
2014-Dec-13 04:22N 49°39' W 126°28'3 2.9
2014-Dec-13 03:11N 49°36' W 126°31'1 1.3
2014-Dec-13 02:33N 49°36' W 126°32'3 2.7
2014-Dec-13 01:33N 49°35' W 126°36'5 4.7
2014-Dec-13 00:34N 49°31' W 126°41'2 1.5
2014-Dec-12 23:34N 49°31' W 126°43'7 7.2
2014-Dec-12 22:34N 49°25' W 126°48'1312.9
2014-Dec-12 21:33N 49°13' W 126°58'36 4.9
2014-Dec-12 14:06N 48°47' W 126°18'611.3
2014-Dec-12 13:33N 48°45' W 126°10'1110.8
2014-Dec-12 12:34N 48°41' W 125°54'1110.2
2014-Dec-12 11:31N 48°37' W 125°40'10 9.9
2014-Dec-12 10:32N 48°33' W 125°26'10 9.8
2014-Dec-12 09:32N 48°31' W 125°12'9 9.4
2014-Dec-12 08:32N 48°31' W 124°58'9 9.5
2014-Dec-12 07:33N 48°31' W 124°43'1211.7
2014-Dec-12 06:34N 48°27' W 124°27'8 7.9
2014-Dec-12 05:33N 48°23' W 124°16'1613.7
2014-Dec-12 04:22N 48°17' W 123°53'1012.6
2014-Dec-12 03:33N 48°16' W 123°38'1111.0
2014-Dec-12 02:33N 48°18' W 123°22'4 4.0
2014-Dec-12 01:33N 48°17' W 123°16'1212.0
2014-Dec-12 00:32N 48°13' W 122°59'11 8.4
2014-Dec-11 23:15N 48°10' W 122°43'912.3
2014-Dec-11 22:33N 48°02' W 122°38'8 7.7
2014-Dec-11 21:33N 47°56' W 122°30'1010.4
2014-Dec-11 20:33N 47°46' W 122°26'1111.0
2014-Dec-11 19:33N 47°36' W 122°25'2 1.8
2014-Dec-11 18:33N 47°37' W 122°23'  
Track history (hours):
 
Tides and Currents Weather Stations Pressure Air Temp Water Temp Dewpoint Dewpoint Depression Visibility Wind Speed Wind Dir Waves Ship Positions

Oceanographic research ship Thomas G. Thompson (USA)

Ship's website: http://www.ocean.washington.edu/vessels/TGT/tgt.html

Detailed information on ship capabilities available from University of Delaware's Ocean Information Center.

Owner: UNIVERSITY OF WASHINGTON, SEATTLE, WA. More information available from US FCC via Universal Licensing System and Coast Guard Vessel Documentation Center.

Last reported at 2014-Dec-21 18:33 UTC. Time now 2014-Dec-21 20:53 UTC.
Position N 47°39' W 122°20'.

Type: Other ship. MMSI: 366345000.

Date/timePositionNaut miles runAvg speedWind from/ knotsBaromVisibWave heightAir tempDewpointWater temp
2014-Dec-21 18:33N 47°39' W 122°20'3 2.9
2014-Dec-21 17:33N 47°40' W 122°24'4 4.0
2014-Dec-21 16:34N 47°42' W 122°28'5 5.2
2014-Dec-21 15:33N 47°48' W 122°27'1211.4
2014-Dec-21 14:33N 47°58' W 122°36'1311.7
2014-Dec-21 13:24N 48°09' W 122°45'1112.4
2014-Dec-21 12:33N 48°12' W 123°01'1414.0
2014-Dec-21 11:33N 48°13' W 123°22'1514.9
2014-Dec-21 10:33N 48°13' W 123°44'1414.2
2014-Dec-21 09:34N 48°17' W 124°05'1514.7
2014-Dec-21 08:33N 48°23' W 124°25'1414.0
2014-Dec-21 07:34N 48°29' W 124°44'1312.7
2014-Dec-21 06:33N 48°29' W 125°03'1212.2
2014-Dec-21 05:33N 48°30' W 125°21'1211.9
2014-Dec-21 04:34N 48°38' W 125°34'1111.2
2014-Dec-21 03:34N 48°46' W 125°46'1110.9
2014-Dec-21 02:33N 48°54' W 125°58'1010.4
2014-Dec-21 01:34N 49°01' W 126°09'1210.7
2014-Dec-21 00:28N 49°09' W 126°22'1010.5
2014-Dec-20 23:33N 49°16' W 126°33'1010.0
2014-Dec-20 22:33N 49°23' W 126°43'9 9.0
2014-Dec-20 21:34N 49°32' W 126°40'10 1.3
2014-Dec-20 13:33N 49°39' W 126°28'6 5.7
2014-Dec-20 12:33N 49°38' W 126°36'1 0.5
2014-Dec-20 11:34N 49°38' W 126°37'0 0.0
2014-Dec-20 10:33N 49°38' W 126°37'1 1.1
2014-Dec-20 09:33N 49°39' W 126°36'2 2.2
2014-Dec-20 08:34N 49°37' W 126°36'4 3.6
2014-Dec-20 07:32N 49°41' W 126°35'1 1.3
2014-Dec-20 06:33N 49°41' W 126°34'1 0.9
2014-Dec-20 05:33N 49°41' W 126°35'4 3.6
2014-Dec-20 04:34N 49°44' W 126°38'1 0.8
2014-Dec-20 03:33N 49°45' W 126°38'1 0.6
2014-Dec-20 02:33N 49°46' W 126°38'1 1.3
2014-Dec-20 01:33N 49°47' W 126°39'1 1.5
2014-Dec-20 00:33N 49°45' W 126°38'2 2.4
2014-Dec-19 23:32N 49°48' W 126°39'1 1.1
2014-Dec-19 22:32N 49°47' W 126°39'0 0.1
2014-Dec-19 21:33N 49°47' W 126°39'1 1.4
2014-Dec-19 20:33N 49°45' W 126°38'1 1.2
2014-Dec-19 19:33N 49°47' W 126°39'0 0.1
2014-Dec-19 18:34N 49°47' W 126°39'0 0.1
2014-Dec-19 17:32N 49°47' W 126°39'0 0.3
2014-Dec-19 16:30N 49°47' W 126°39'0 0.5
2014-Dec-19 15:33N 49°48' W 126°39'0 0.1
2014-Dec-19 13:27N 49°48' W 126°39'4 3.6
2014-Dec-19 12:27N 49°52' W 126°40'0 0.0
2014-Dec-19 11:14N 49°51' W 126°40'3 4.8
2014-Dec-19 10:34N 49°48' W 126°39'4 1.7
2014-Dec-19 08:21N 49°52' W 126°39'4 1.2
2014-Dec-19 04:34N 49°48' W 126°39'5 0.3
2014-Dec-18 15:10N 49°52' W 126°40'1 1.4
2014-Dec-18 14:33N 49°53' W 126°39'1 1.0
2014-Dec-18 13:16N 49°54' W 126°40'0 0.2
2014-Dec-18 12:10N 49°54' W 126°39'3 3.8
2014-Dec-18 11:27N 49°51' W 126°40'2 1.5
2014-Dec-18 10:24N 49°53' W 126°40'2 1.0
2014-Dec-18 08:34N 49°55' W 126°39'7 1.3
2014-Dec-18 03:13N 49°48' W 126°39'0 0.1
2014-Dec-18 02:32N 49°48' W 126°39'1 1.1
2014-Dec-18 01:31N 49°47' W 126°39'0 0.2
2014-Dec-18 00:33N 49°47' W 126°39'0 0.2
2014-Dec-17 23:29N 49°47' W 126°39'0 0.1
2014-Dec-17 22:25N 49°47' W 126°39'0 0.2
2014-Dec-17 21:24N 49°46' W 126°39'0 0.3
2014-Dec-17 20:32N 49°46' W 126°38'0 0.0
2014-Dec-17 19:33N 49°46' W 126°38'0 0.1
2014-Dec-17 18:22N 49°46' W 126°38'8 1.9
2014-Dec-17 14:16N 49°54' W 126°39'1 1.0
2014-Dec-17 13:13N 49°53' W 126°40'0 0.1
2014-Dec-17 12:08N 49°53' W 126°40'5 0.8
2014-Dec-17 06:21N 49°48' W 126°39'0 0.1
2014-Dec-17 05:28N 49°48' W 126°39'1 0.2
2014-Dec-17 02:33N 49°48' W 126°39'4 4.3
2014-Dec-17 01:33N 49°43' W 126°37'3 3.4
2014-Dec-17 00:33N 49°41' W 126°33'3 3.1
2014-Dec-16 23:34N 49°43' W 126°29'1 0.1
2014-Dec-16 15:32N 49°42' W 126°30'0 0.1
2014-Dec-16 11:33N 49°42' W 126°30'1 0.6
2014-Dec-16 10:32N 49°42' W 126°30'4 2.6
2014-Dec-16 09:04N 49°39' W 126°27'2 1.1
2014-Dec-16 07:12N 49°39' W 126°23'0 0.0
2014-Dec-16 06:22N 49°39' W 126°24'2 0.1
2014-Dec-15 03:10N 49°39' W 126°26'1 0.9
2014-Dec-15 02:15N 49°39' W 126°27'0 0.0
2014-Dec-15 01:30N 49°39' W 126°27'0 0.2
2014-Dec-15 00:34N 49°39' W 126°27'0 0.0
2014-Dec-13 21:12N 49°39' W 126°27'0 0.0
2014-Dec-13 18:05N 49°39' W 126°27'0 0.0
2014-Dec-13 17:25N 49°39' W 126°27'0 0.2
2014-Dec-13 16:25N 49°39' W 126°27'0 0.0
2014-Dec-13 15:19N 49°39' W 126°27'1 0.1
2014-Dec-13 08:31N 49°39' W 126°26'1 0.2
2014-Dec-13 04:22N 49°39' W 126°28'3 2.9
2014-Dec-13 03:11N 49°36' W 126°31'1 1.3
2014-Dec-13 02:33N 49°36' W 126°32'3 2.7
2014-Dec-13 01:33N 49°35' W 126°36'5 4.7
2014-Dec-13 00:34N 49°31' W 126°41'2 1.5
2014-Dec-12 23:34N 49°31' W 126°43'7 7.2
2014-Dec-12 22:34N 49°25' W 126°48'1312.9
2014-Dec-12 21:33N 49°13' W 126°58'36 4.9
2014-Dec-12 14:06N 48°47' W 126°18'611.3
2014-Dec-12 13:33N 48°45' W 126°10'1110.8
2014-Dec-12 12:34N 48°41' W 125°54'1110.2
2014-Dec-12 11:31N 48°37' W 125°40'10 9.9
2014-Dec-12 10:32N 48°33' W 125°26'10 9.8
2014-Dec-12 09:32N 48°31' W 125°12'9 9.4
2014-Dec-12 08:32N 48°31' W 124°58'9 9.5
2014-Dec-12 07:33N 48°31' W 124°43'1211.7
2014-Dec-12 06:34N 48°27' W 124°27'8 7.9
2014-Dec-12 05:33N 48°23' W 124°16'1613.7
2014-Dec-12 04:22N 48°17' W 123°53'1012.6
2014-Dec-12 03:33N 48°16' W 123°38'1111.0
2014-Dec-12 02:33N 48°18' W 123°22'4 4.0
2014-Dec-12 01:33N 48°17' W 123°16'1212.0
2014-Dec-12 00:32N 48°13' W 122°59'11 8.4
2014-Dec-11 23:15N 48°10' W 122°43'912.3
2014-Dec-11 22:33N 48°02' W 122°38'8 7.7
2014-Dec-11 21:33N 47°56' W 122°30'1010.4
2014-Dec-11 20:33N 47°46' W 122°26'1111.0
2014-Dec-11 19:33N 47°36' W 122°25'2 1.8
2014-Dec-11 18:33N 47°37' W 122°23'  

Dump ship's entire track history